Time;durP1;ratioP1;P1;durP2;ratioP2;P2;SDS_P1;SDS_P2;PMS_P1;PMS_P2;Temp;Humidity;BMP_temperature;BMP_pressure;BME280_temperature;BME280_humidity;BME280_pressure;Samples;Min_cycle;Max_cycle;Signal;HPM_P1;HPM_P2
2021/10/29 00:01:18;;;;;;;32.50;26.95;;;9.70;99.90;;;;;;5032112;28;20057;-72
2021/10/29 00:03:44;;;;;;;32.85;26.85;;;9.70;99.90;;;;;;5048320;28;20040;-71
2021/10/29 00:06:10;;;;;;;33.80;24.92;;;9.70;99.90;;;;;;5052964;28;20856;-72
2021/10/29 00:08:36;;;;;;;31.08;24.95;;;9.80;99.90;;;;;;5020224;28;20055;-72
2021/10/29 00:11:02;;;;;;;30.98;26.17;;;9.80;99.90;;;;;;5052667;28;20037;-72
2021/10/29 00:13:27;;;;;;;32.08;25.38;;;9.80;99.90;;;;;;5037299;28;20048;-72
2021/10/29 00:15:53;;;;;;;35.28;25.83;;;9.80;99.90;;;;;;5052660;28;20574;-72
2021/10/29 00:18:19;;;;;;;30.65;25.17;;;9.70;99.90;;;;;;5036169;28;20044;-72
2021/10/29 00:20:45;;;;;;;32.72;26.75;;;9.70;99.90;;;;;;5025213;28;20494;-71
2021/10/29 00:23:11;;;;;;;31.52;24.67;;;9.70;99.90;;;;;;5033593;28;20063;-72
2021/10/29 00:25:37;;;;;;;30.80;25.67;;;9.70;99.90;;;;;;5016657;28;20098;-72
2021/10/29 00:28:02;;;;;;;32.85;26.52;;;9.60;99.90;;;;;;5048512;28;20044;-72
2021/10/29 00:30:31;;;;;;;31.95;25.92;;;9.60;99.90;;;;;;4990994;28;20053;-72
2021/10/29 00:32:57;;;;;;;34.17;26.27;;;9.50;99.90;;;;;;5015447;28;20532;-72
2021/10/29 00:35:23;;;;;;;33.72;24.98;;;9.50;99.90;;;;;;5034754;28;20063;-72
2021/10/29 00:37:49;;;;;;;35.70;27.42;;;9.50;99.90;;;;;;5035019;28;20052;-72
2021/10/29 00:40:15;;;;;;;30.95;25.50;;;9.50;99.90;;;;;;5049248;28;20044;-72
2021/10/29 00:42:42;;;;;;;31.80;26.02;;;9.50;99.90;;;;;;5048624;28;20036;-72
2021/10/29 00:45:09;;;;;;;33.97;24.75;;;9.50;99.90;;;;;;5043674;28;20041;-72
2021/10/29 00:47:35;;;;;;;33.80;26.02;;;9.40;99.90;;;;;;5027731;28;20053;-72
2021/10/29 00:50:01;;;;;;;35.05;26.60;;;9.40;99.90;;;;;;5035819;28;20041;-72
2021/10/29 00:52:27;;;;;;;31.80;25.55;;;9.40;99.90;;;;;;5038945;28;20048;-72
2021/10/29 00:54:54;;;;;;;33.25;25.45;;;9.40;99.90;;;;;;5026358;28;20047;-72
2021/10/29 00:57:21;;;;;;;33.50;25.52;;;9.40;99.90;;;;;;5045594;28;20403;-72
2021/10/29 00:59:48;;;;;;;29.85;25.38;;;9.40;99.90;;;;;;5044329;28;20098;-71
2021/10/29 01:02:14;;;;;;;30.05;25.45;;;9.50;99.90;;;;;;5034444;28;20407;-72
2021/10/29 01:04:40;;;;;;;30.80;25.20;;;9.50;99.90;;;;;;5031927;28;20049;-72
2021/10/29 01:07:06;;;;;;;31.00;25.02;;;9.50;99.90;;;;;;5000110;28;20435;-72
2021/10/29 01:09:32;;;;;;;31.60;25.20;;;9.50;99.90;;;;;;5034671;28;20080;-71
2021/10/29 01:12:02;;;;;;;32.67;25.27;;;9.50;99.90;;;;;;5030800;28;20542;-72
2021/10/29 01:14:31;;;;;;;33.70;26.30;;;9.40;99.90;;;;;;4998100;28;20136;-71
2021/10/29 01:16:57;;;;;;;33.35;24.45;;;9.50;99.90;;;;;;5017391;28;20032;-72
2021/10/29 01:19:32;;;;;;;32.00;24.83;;;9.50;99.90;;;;;;5014602;28;20059;-72
2021/10/29 01:22:01;;;;;;;31.80;24.77;;;9.50;99.90;;;;;;5029216;28;20060;-71
2021/10/29 01:24:26;;;;;;;30.95;25.45;;;9.50;99.90;;;;;;5031584;28;20402;-72
2021/10/29 01:26:52;;;;;;;32.50;25.02;;;9.50;99.90;;;;;;5032549;28;20040;-73
2021/10/29 01:29:18;;;;;;;31.17;25.00;;;9.50;99.90;;;;;;5016009;28;20132;-72
2021/10/29 01:31:44;;;;;;;28.30;25.05;;;9.50;99.90;;;;;;5020018;28;20033;-71
2021/10/29 01:34:10;;;;;;;35.33;25.77;;;9.50;99.90;;;;;;5022399;28;20055;-71
2021/10/29 01:36:36;;;;;;;32.38;26.08;;;9.40;99.90;;;;;;4999648;28;20139;-71
2021/10/29 01:39:02;;;;;;;33.53;26.10;;;9.50;99.90;;;;;;5012077;28;20045;-71
2021/10/29 01:41:31;;;;;;;36.38;26.75;;;9.40;99.90;;;;;;5027973;28;20053;-71
2021/10/29 01:43:57;;;;;;;34.17;25.85;;;9.40;99.90;;;;;;4999182;28;20087;-72
2021/10/29 01:46:23;;;;;;;32.05;25.92;;;9.40;99.90;;;;;;5014703;28;20041;-72
2021/10/29 01:48:51;;;;;;;33.22;24.92;;;9.40;99.90;;;;;;4998827;28;20048;-72
2021/10/29 01:51:18;;;;;;;31.38;25.42;;;9.40;99.90;;;;;;5030882;28;20056;-72
2021/10/29 01:53:45;;;;;;;34.65;25.17;;;9.40;99.90;;;;;;4998164;28;20053;-72
2021/10/29 01:56:11;;;;;;;33.63;25.30;;;9.40;99.90;;;;;;5031580;28;20495;-71
2021/10/29 01:58:37;;;;;;;29.05;23.25;;;9.40;99.90;;;;;;5030736;28;20511;-72
2021/10/29 02:01:04;;;;;;;33.25;25.27;;;9.40;99.90;;;;;;5025971;28;20087;-72
2021/10/29 02:03:30;;;;;;;30.65;24.33;;;9.30;99.90;;;;;;5012723;28;20052;-72
2021/10/29 02:05:56;;;;;;;30.58;24.52;;;9.40;99.90;;;;;;4997621;28;20045;-72
2021/10/29 02:08:24;;;;;;;33.80;25.23;;;9.40;99.90;;;;;;5013531;28;20037;-71
2021/10/29 02:10:51;;;;;;;30.95;24.00;;;9.40;99.90;;;;;;5013329;28;20055;-72
2021/10/29 02:13:18;;;;;;;32.10;23.70;;;9.50;99.90;;;;;;5015049;28;20400;-72
2021/10/29 02:15:44;;;;;;;26.67;23.50;;;9.40;99.90;;;;;;5032579;28;20098;-72
2021/10/29 02:18:10;;;;;;;30.83;24.02;;;9.40;99.90;;;;;;5029672;28;20434;-71
2021/10/29 02:20:35;;;;;;;31.77;23.75;;;9.50;99.90;;;;;;4996490;28;20037;-71
2021/10/29 02:23:01;;;;;;;28.85;22.80;;;9.40;99.90;;;;;;4997429;28;20053;-72
2021/10/29 02:25:27;;;;;;;28.05;23.63;;;9.50;99.90;;;;;;5029923;28;20493;-71
2021/10/29 02:27:53;;;;;;;30.20;23.52;;;9.40;99.90;;;;;;4989936;28;20040;-72
2021/10/29 02:30:19;;;;;;;30.88;22.02;;;9.40;99.90;;;;;;5029575;28;20367;-71
2021/10/29 02:32:44;;;;;;;30.30;22.25;;;9.40;99.90;;;;;;5012132;28;20032;-72
2021/10/29 02:35:10;;;;;;;29.05;22.90;;;9.40;99.90;;;;;;5033575;28;20040;-71
2021/10/29 02:37:36;;;;;;;28.65;23.45;;;9.40;99.90;;;;;;5034490;28;20080;-72
2021/10/29 02:40:02;;;;;;;29.40;22.92;;;9.40;99.90;;;;;;5050769;28;20105;-71
2021/10/29 02:42:28;;;;;;;28.42;23.02;;;9.30;99.90;;;;;;5051045;28;20481;-72
2021/10/29 02:44:53;;;;;;;29.10;23.33;;;9.40;99.90;;;;;;5028458;28;20065;-71
2021/10/29 02:47:19;;;;;;;28.88;22.80;;;9.30;99.90;;;;;;5014182;28;20052;-71
2021/10/29 02:49:45;;;;;;;28.90;22.15;;;9.30;99.90;;;;;;5012169;28;20124;-71
2021/10/29 02:52:11;;;;;;;31.20;23.38;;;9.40;99.90;;;;;;5013952;28;20132;-71
2021/10/29 02:54:37;;;;;;;29.65;23.02;;;9.40;99.90;;;;;;5030915;28;20053;-71
2021/10/29 02:57:03;;;;;;;28.00;23.05;;;9.40;99.90;;;;;;5014937;28;20054;-70
2021/10/29 02:59:29;;;;;;;27.52;21.55;;;9.40;99.90;;;;;;5031215;28;20045;-71
2021/10/29 03:01:55;;;;;;;28.80;22.27;;;9.40;99.90;;;;;;5014155;28;20040;-71
2021/10/29 03:04:21;;;;;;;27.85;22.15;;;9.30;99.90;;;;;;5031647;28;20139;-71
2021/10/29 03:06:47;;;;;;;26.90;22.33;;;9.30;99.90;;;;;;5033381;28;20037;-71
2021/10/29 03:09:12;;;;;;;26.50;21.45;;;9.30;99.90;;;;;;5020437;28;20677;-71
2021/10/29 03:11:38;;;;;;;26.42;20.42;;;9.40;99.90;;;;;;5001550;28;20414;-70
2021/10/29 03:14:04;;;;;;;27.08;21.35;;;9.30;99.90;;;;;;5034586;28;20052;-70
2021/10/29 03:16:30;;;;;;;31.08;21.67;;;9.30;99.90;;;;;;5001636;28;20104;-71
2021/10/29 03:18:55;;;;;;;29.10;22.13;;;9.30;99.90;;;;;;5033635;28;20052;-70
2021/10/29 03:21:21;;;;;;;25.27;20.48;;;9.30;99.90;;;;;;5043552;28;20128;-70
2021/10/29 03:23:47;;;;;;;26.63;21.17;;;9.30;99.90;;;;;;5039399;28;20049;-70
2021/10/29 03:26:16;;;;;;;26.55;20.80;;;9.40;99.90;;;;;;5030166;28;20492;-70
2021/10/29 03:28:42;;;;;;;29.40;21.98;;;9.40;99.90;;;;;;5035469;28;20399;-70
2021/10/29 03:31:07;;;;;;;28.20;21.30;;;9.40;99.90;;;;;;5017405;28;20045;-71
2021/10/29 03:33:38;;;;;;;25.73;20.30;;;9.40;99.90;;;;;;5013877;28;20045;-71
2021/10/29 03:36:06;;;;;;;27.27;21.17;;;9.40;99.90;;;;;;5035704;28;20037;-71
2021/10/29 03:41:14;;;;;;;26.30;21.13;;;9.40;99.90;;;;;;5050320;28;20064;-71
2021/10/29 03:43:56;;;;;;;25.65;20.90;;;9.40;99.90;;;;;;5050259;28;20523;-71
2021/10/29 03:46:25;;;;;;;30.83;21.30;;;9.50;99.90;;;;;;5001575;28;20514;-71
2021/10/29 03:51:39;;;;;;;26.98;21.85;;;9.50;99.90;;;;;;5029879;28;20095;-71
2021/10/29 03:54:12;;;;;;;28.95;21.52;;;9.50;99.90;;;;;;5029842;28;20516;-72
2021/10/29 03:56:42;;;;;;;26.60;21.60;;;9.50;99.90;;;;;;5026056;28;20045;-71
2021/10/29 03:59:10;;;;;;;28.50;21.70;;;9.60;99.90;;;;;;5025353;28;20056;-71
2021/10/29 04:01:36;;;;;;;27.73;20.45;;;9.60;99.90;;;;;;5014216;28;20576;-72
2021/10/29 04:04:02;;;;;;;29.65;21.17;;;9.60;99.90;;;;;;5006936;28;20509;-78
2021/10/29 04:09:48;;;;;;;26.35;20.88;;;9.60;99.90;;;;;;5126377;27;21229;-76
2021/10/29 04:12:16;;;;;;;27.13;21.15;;;9.60;99.90;;;;;;5122190;28;20051;-71
2021/10/29 04:14:45;;;;;;;25.42;20.35;;;9.60;99.90;;;;;;5081010;28;20126;-71
2021/10/29 04:17:11;;;;;;;25.33;19.52;;;9.60;99.90;;;;;;5091794;28;20581;-71
2021/10/29 04:19:37;;;;;;;25.25;20.25;;;9.60;99.90;;;;;;5070309;28;20047;-71
2021/10/29 04:22:03;;;;;;;25.75;21.55;;;9.70;99.90;;;;;;5106601;28;20035;-70
2021/10/29 04:24:31;;;;;;;25.77;20.02;;;9.70;99.90;;;;;;5074780;28;20408;-71
2021/10/29 04:26:59;;;;;;;25.58;20.30;;;9.70;99.90;;;;;;5071594;28;20039;-70
2021/10/29 04:29:27;;;;;;;28.73;20.60;;;9.70;99.90;;;;;;5088200;28;20124;-71
2021/10/29 04:31:53;;;;;;;28.23;21.65;;;9.70;99.90;;;;;;5121661;28;20047;-71
2021/10/29 04:34:20;;;;;;;25.02;19.25;;;9.80;99.90;;;;;;5118248;28;20143;-70
2021/10/29 04:36:46;;;;;;;25.95;19.95;;;9.80;99.90;;;;;;5090862;28;20512;-71
2021/10/29 04:39:13;;;;;;;26.13;20.40;;;9.80;99.90;;;;;;5125764;28;20092;-71
2021/10/29 04:41:46;;;;;;;25.80;20.08;;;9.80;99.90;;;;;;5107925;28;20039;-71
2021/10/29 04:44:13;;;;;;;24.00;18.98;;;9.80;99.90;;;;;;5125465;28;20511;-71
2021/10/29 04:46:39;;;;;;;22.88;18.92;;;9.80;99.90;;;;;;5104480;28;20059;-71
2021/10/29 04:49:06;;;;;;;24.88;19.83;;;9.80;99.90;;;;;;5108241;28;20040;-71
2021/10/29 04:51:32;;;;;;;24.63;20.65;;;9.80;99.90;;;;;;5091226;28;20047;-77
2021/10/29 04:54:02;;;;;;;24.00;19.25;;;9.80;99.90;;;;;;5091054;28;20035;-77
2021/10/29 04:56:28;;;;;;;24.88;19.33;;;9.80;99.90;;;;;;5136142;27;20553;-76
2021/10/29 04:58:54;;;;;;;28.20;19.55;;;9.80;99.90;;;;;;5089991;28;20079;-77
2021/10/29 05:01:19;;;;;;;23.63;19.70;;;9.80;99.90;;;;;;5098567;28;20082;-77
2021/10/29 05:03:46;;;;;;;24.05;19.42;;;9.80;99.90;;;;;;5103682;28;20390;-78
2021/10/29 05:06:12;;;;;;;21.13;18.52;;;9.80;99.90;;;;;;5091089;28;20062;-78
2021/10/29 05:08:38;;;;;;;23.38;19.02;;;9.80;99.90;;;;;;5110660;28;20090;-78
2021/10/29 05:11:05;;;;;;;22.38;18.08;;;9.80;99.90;;;;;;5091377;28;20039;-71
2021/10/29 05:13:31;;;;;;;22.63;19.13;;;9.80;99.90;;;;;;5089909;28;20043;-72
2021/10/29 05:15:57;;;;;;;25.30;18.73;;;9.80;99.90;;;;;;5108017;28;20039;-72
2021/10/29 05:18:23;;;;;;;23.35;18.73;;;9.80;99.90;;;;;;5090659;28;20816;-72
2021/10/29 05:20:49;;;;;;;26.95;18.40;;;9.80;99.90;;;;;;5078368;28;20052;-72
2021/10/29 05:23:15;;;;;;;23.42;19.42;;;9.80;99.90;;;;;;5076907;28;20052;-72
2021/10/29 05:25:44;;;;;;;22.73;18.70;;;9.70;99.90;;;;;;5076823;28;20047;-72
2021/10/29 05:28:10;;;;;;;23.08;18.77;;;9.80;99.90;;;;;;5075358;28;20478;-72
2021/10/29 05:30:37;;;;;;;20.95;17.45;;;9.80;99.90;;;;;;5089797;28;20052;-72
2021/10/29 05:33:03;;;;;;;21.85;18.67;;;9.70;99.90;;;;;;5088999;28;20047;-71
2021/10/29 05:35:29;;;;;;;21.00;16.90;;;9.80;99.90;;;;;;5079521;28;20043;-72
2021/10/29 05:37:55;;;;;;;22.17;18.38;;;9.70;99.90;;;;;;5077133;28;20031;-72
2021/10/29 05:40:22;;;;;;;22.17;18.50;;;9.70;99.90;;;;;;5088026;28;20062;-72
2021/10/29 05:42:51;;;;;;;23.88;19.15;;;9.70;99.90;;;;;;5059835;28;20051;-72
2021/10/29 05:45:17;;;;;;;24.10;18.50;;;9.70;99.90;;;;;;5081482;27;20048;-72
2021/10/29 05:47:46;;;;;;;22.27;18.70;;;9.70;99.90;;;;;;5071615;28;20141;-72
2021/10/29 05:50:13;;;;;;;26.15;18.27;;;9.80;99.90;;;;;;5055724;28;20505;-73
2021/10/29 05:52:42;;;;;;;21.17;18.20;;;9.80;99.90;;;;;;5083277;28;20592;-72
2021/10/29 05:57:52;;;;;;;20.23;17.73;;;9.90;99.90;;;;;;5081571;28;20043;-72
2021/10/29 06:00:23;;;;;;;24.95;17.80;;;9.80;99.90;;;;;;5059349;28;20051;-72
2021/10/29 06:02:49;;;;;;;23.20;17.30;;;9.80;99.90;;;;;;5074794;28;20078;-72
2021/10/29 06:05:16;;;;;;;20.98;17.80;;;9.80;99.90;;;;;;5055738;28;20486;-72
2021/10/29 06:07:42;;;;;;;19.50;17.00;;;9.80;99.90;;;;;;5058413;28;20059;-72
2021/10/29 06:10:10;;;;;;;22.83;17.70;;;9.70;99.90;;;;;;5073691;28;20059;-72
2021/10/29 06:12:38;;;;;;;22.73;16.70;;;9.70;99.90;;;;;;5079232;28;20513;-71
2021/10/29 06:15:08;;;;;;;22.45;17.30;;;9.70;99.90;;;;;;5055024;28;20040;-72
2021/10/29 06:17:34;;;;;;;23.73;18.23;;;9.70;99.90;;;;;;5072587;28;20075;-72
2021/10/29 06:20:01;;;;;;;25.25;17.98;;;9.70;99.90;;;;;;5058154;28;20072;-72
2021/10/29 06:22:34;;;;;;;19.67;16.38;;;9.70;99.90;;;;;;5086418;28;20052;-73
2021/10/29 06:25:08;;;;;;;22.90;17.67;;;9.70;99.90;;;;;;5092082;28;20044;-72
2021/10/29 06:30:00;;;;;;;20.08;16.80;;;9.80;99.90;;;;;;5091005;28;20043;-72
2021/10/29 06:32:27;;;;;;;19.63;16.58;;;9.70;99.90;;;;;;5075069;28;20438;-73
2021/10/29 06:34:53;;;;;;;21.17;16.50;;;9.80;99.90;;;;;;5070738;28;20497;-72
2021/10/29 06:37:19;;;;;;;22.60;16.23;;;9.80;99.90;;;;;;5113333;27;20044;-72
2021/10/29 06:39:48;;;;;;;19.13;15.18;;;9.90;99.90;;;;;;5082269;28;20097;-72
2021/10/29 06:42:20;;;;;;;19.42;15.82;;;9.80;99.90;;;;;;5117145;27;20096;-71
2021/10/29 07:01:14;;;;;;;21.35;15.07;;;10.30;99.90;;;;;;5111542;27;20047;-72
2021/10/29 07:41:51;;;;;;;17.27;13.48;;;10.90;99.90;;;;;;5040137;28;20402;-71
2021/10/29 07:44:25;;;;;;;16.15;12.98;;;10.90;99.90;;;;;;5055063;28;20190;-71
2021/10/29 07:46:51;;;;;;;16.90;12.63;;;11.00;99.90;;;;;;5094455;28;20476;-71
2021/10/29 07:49:17;;;;;;;21.50;13.60;;;11.10;99.90;;;;;;5073255;28;20047;-70
2021/10/29 07:51:43;;;;;;;15.50;13.73;;;11.10;99.90;;;;;;5096512;28;20065;-70
2021/10/29 07:54:09;;;;;;;17.60;13.93;;;11.10;99.90;;;;;;5074881;28;20092;-70
2021/10/29 07:56:35;;;;;;;17.45;13.80;;;11.10;99.90;;;;;;5094695;28;20150;-72
2021/10/29 07:59:03;;;;;;;13.95;12.35;;;11.10;99.90;;;;;;5053540;28;20131;-71
2021/10/29 08:01:32;;;;;;;18.15;13.52;;;11.10;99.90;;;;;;5082809;28;20051;-71
2021/10/29 08:04:01;;;;;;;17.30;12.98;;;11.20;99.90;;;;;;5073546;28;20047;-71
2021/10/29 08:06:27;;;;;;;17.70;13.25;;;11.20;99.90;;;;;;5058626;28;20065;-71
2021/10/29 08:08:53;;;;;;;22.10;13.48;;;11.20;99.90;;;;;;5093595;28;20052;-71
2021/10/29 08:11:19;;;;;;;17.33;12.43;;;11.30;99.90;;;;;;5110365;28;20052;-71
2021/10/29 08:13:45;;;;;;;15.60;12.48;;;11.40;99.90;;;;;;5088383;28;20060;-71
2021/10/29 08:16:11;;;;;;;17.00;13.05;;;11.40;99.90;;;;;;5069257;28;20040;-71
2021/10/29 08:18:44;;;;;;;15.70;12.85;;;11.50;99.90;;;;;;5061053;28;20434;-71
2021/10/29 08:21:11;;;;;;;16.58;13.45;;;11.50;99.90;;;;;;5073575;28;20054;-71
2021/10/29 08:23:39;;;;;;;16.00;13.15;;;11.60;99.90;;;;;;5091232;28;20160;-71
2021/10/29 08:26:05;;;;;;;19.85;13.75;;;11.70;99.90;;;;;;5072560;28;20039;-70
2021/10/29 08:28:31;;;;;;;15.93;12.63;;;11.80;99.90;;;;;;5052383;28;20054;-71
2021/10/29 08:30:57;;;;;;;17.10;12.82;;;11.80;99.90;;;;;;5040905;28;20055;-71
2021/10/29 08:33:23;;;;;;;14.35;11.75;;;11.90;99.90;;;;;;5058498;28;20701;-71
2021/10/29 08:35:50;;;;;;;14.88;11.98;;;12.00;99.90;;;;;;5052805;28;20135;-71
2021/10/29 08:38:18;;;;;;;15.20;11.63;;;12.10;99.90;;;;;;5077914;28;20055;-71
2021/10/29 08:40:44;;;;;;;17.35;12.57;;;12.10;99.90;;;;;;5073888;28;20130;-71
2021/10/29 08:43:11;;;;;;;15.52;12.23;;;12.20;99.90;;;;;;5069966;28;20063;-71
2021/10/29 08:45:38;;;;;;;14.15;11.75;;;12.20;99.90;;;;;;5062589;28;20043;-71
2021/10/29 08:48:05;;;;;;;14.27;11.35;;;12.30;99.90;;;;;;5074121;28;20035;-71
2021/10/29 08:50:32;;;;;;;14.20;11.30;;;12.40;99.90;;;;;;5107752;28;20616;-70
2021/10/29 08:52:59;;;;;;;16.15;12.25;;;12.40;99.90;;;;;;5075373;28;20077;-71
2021/10/29 08:55:27;;;;;;;17.02;11.55;;;12.50;99.90;;;;;;5064546;28;20052;-71
2021/10/29 08:57:54;;;;;;;14.40;11.77;;;12.60;99.90;;;;;;5074606;28;20047;-71
2021/10/29 09:00:24;;;;;;;15.55;11.57;;;12.60;99.90;;;;;;5110850;27;20113;-71
2021/10/29 09:03:21;;;;;;;15.68;11.57;;;12.70;99.90;;;;;;5059150;28;21136;-70
2021/10/29 09:08:51;;;;;;;15.70;11.55;;;12.80;99.90;;;;;;5088733;28;20476;-70
2021/10/29 09:11:25;;;;;;;15.80;11.23;;;12.90;99.90;;;;;;5069347;28;20754;-70
2021/10/29 09:31:33;;;;;;;15.85;10.98;;;13.30;99.90;;;;;;5070880;28;20048;-70
2021/10/29 09:34:10;;;;;;;14.80;9.88;;;13.30;99.90;;;;;;5082570;28;20056;-74
2021/10/29 09:36:40;;;;;;;13.38;10.00;;;13.40;99.90;;;;;;5073862;28;20119;-74
2021/10/29 09:39:26;;;;;;;15.95;10.82;;;13.40;99.90;;;;;;5092758;28;20036;-74
2021/10/29 09:42:06;;;;;;;14.18;10.07;;;13.50;99.90;;;;;;5069356;28;20457;-75
2021/10/29 09:44:48;;;;;;;11.75;10.43;;;13.60;99.90;;;;;;5055383;28;20052;-75
2021/10/29 09:47:18;;;;;;;13.68;10.10;;;13.70;99.90;;;;;;5081733;28;20083;-70
2021/10/29 09:49:54;;;;;;;12.15;9.52;;;13.70;99.90;;;;;;5053396;28;20546;-71
2021/10/29 09:57:30;;;;;;;14.52;9.60;;;14.00;99.90;;;;;;5086227;28;20067;-71
2021/10/29 09:59:57;;;;;;;13.88;9.20;;;14.00;99.90;;;;;;5071786;28;20452;-71
2021/10/29 10:02:25;;;;;;;12.38;9.75;;;14.00;99.90;;;;;;5069178;28;20044;-71
2021/10/29 10:05:00;;;;;;;14.77;9.63;;;14.00;99.90;;;;;;5085574;28;20082;-71
2021/10/29 10:07:31;;;;;;;12.65;9.45;;;14.00;99.90;;;;;;5069157;28;20534;-70
2021/10/29 10:10:06;;;;;;;13.10;9.52;;;14.00;99.90;;;;;;5090797;27;20126;-71
2021/10/29 10:12:35;;;;;;;12.18;9.75;;;14.00;99.90;;;;;;5085922;28;20043;-70
2021/10/29 10:15:05;;;;;;;15.10;9.30;;;14.00;99.90;;;;;;5110441;27;20514;-70
2021/10/29 10:17:32;;;;;;;14.85;10.00;;;14.00;99.90;;;;;;5120124;27;20047;-70
2021/10/29 10:19:59;;;;;;;12.00;9.80;;;14.10;99.90;;;;;;5077907;27;20561;-70
2021/10/29 10:22:28;;;;;;;12.38;9.63;;;14.20;99.90;;;;;;5089153;27;20429;-69
2021/10/29 10:25:04;;;;;;;13.50;9.20;;;14.30;99.90;;;;;;5069018;28;20043;-71
2021/10/29 10:30:24;;;;;;;11.35;8.52;;;14.50;99.90;;;;;;5068478;28;20067;-76
2021/10/29 10:46:56;;;;;;;12.13;7.53;;;14.90;99.90;;;;;;5077211;28;20056;-71
2021/10/29 10:49:38;;;;;;;9.55;7.97;;;15.00;99.90;;;;;;5090871;27;20807;-68
2021/10/29 10:55:10;;;;;;;12.05;7.47;;;15.10;99.90;;;;;;5097748;27;20055;-70
2021/10/29 10:57:52;;;;;;;12.85;7.68;;;15.20;99.90;;;;;;5081587;28;20063;-70
2021/10/29 11:05:58;;;;;;;13.00;7.20;;;15.40;99.90;;;;;;5077878;28;20169;-70
2021/10/29 11:11:19;;;;;;;9.38;6.72;;;15.50;99.90;;;;;;5079969;28;20044;-71
2021/10/29 11:13:56;;;;;;;10.93;8.27;;;15.50;99.90;;;;;;5063120;28;20052;-71
2021/10/29 11:16:36;;;;;;;10.10;6.78;;;15.50;99.90;;;;;;5087188;28;20082;-73
2021/10/29 11:19:26;;;;;;;9.52;7.25;;;15.50;99.90;;;;;;5069551;28;20131;-73
2021/10/29 11:21:55;;;;;;;10.55;6.85;;;15.50;99.90;;;;;;5073304;28;20061;-74
2021/10/29 11:24:38;;;;;;;9.27;7.15;;;15.50;99.90;;;;;;5069823;28;20097;-74
2021/10/29 11:27:06;;;;;;;9.63;6.57;;;15.60;99.90;;;;;;5067412;28;20044;-74
2021/10/29 11:29:53;;;;;;;11.02;6.75;;;15.60;99.90;;;;;;5074115;28;20049;-75
2021/10/29 11:32:21;;;;;;;12.77;7.57;;;15.70;99.90;;;;;;5047842;28;20040;-73
2021/10/29 11:34:53;;;;;;;8.05;6.60;;;15.70;99.90;;;;;;5067112;28;20458;-74
2021/10/29 11:37:19;;;;;;;11.40;6.40;;;15.70;99.90;;;;;;5074304;28;20569;-73
2021/10/29 11:39:45;;;;;;;9.77;6.90;;;15.70;99.90;;;;;;5080007;28;20118;-74
2021/10/29 11:42:11;;;;;;;8.50;6.40;;;15.80;99.90;;;;;;5066009;28;20054;-74
2021/10/29 11:44:39;;;;;;;9.68;6.82;;;15.70;99.90;;;;;;5066453;28;20045;-74
2021/10/29 11:47:06;;;;;;;10.68;6.45;;;15.80;99.90;;;;;;5060893;28;20087;-73
2021/10/29 11:49:32;;;;;;;10.88;7.03;;;15.80;99.90;;;;;;5069832;28;20040;-74
2021/10/29 11:52:03;;;;;;;9.82;6.10;;;15.80;99.90;;;;;;5072317;28;20040;-74
2021/10/29 11:54:35;;;;;;;8.30;6.32;;;15.80;99.90;;;;;;5085434;28;20040;-73
2021/10/29 12:07:32;;;;;;;9.40;6.40;;;16.10;99.90;;;;;;5087452;28;20513;-73
2021/10/29 12:10:04;;;;;;;8.73;5.65;;;16.10;99.90;;;;;;5103241;28;20039;-73
2021/10/29 12:12:32;;;;;;;12.05;6.50;;;16.20;99.90;;;;;;5109881;28;20412;-73
2021/10/29 12:15:13;;;;;;;8.55;5.78;;;16.20;99.90;;;;;;5098196;28;20040;-72
2021/10/29 12:18:03;;;;;;;8.95;6.15;;;16.30;99.90;;;;;;5089517;28;20085;-73
2021/10/29 12:20:40;;;;;;;10.18;6.47;;;16.30;99.40;;;;;;5084493;28;20385;-73
2021/10/29 12:23:17;;;;;;;7.68;6.05;;;16.30;99.90;;;;;;5108564;28;20047;-73
2021/10/29 12:28:22;;;;;;;9.75;5.97;;;16.40;99.90;;;;;;5088964;28;20067;-73
2021/10/29 13:03:45;;;;;;;11.05;6.55;;;16.40;98.70;;;;;;5127109;27;20090;-73
2021/10/29 13:06:16;;;;;;;10.95;5.70;;;16.40;98.90;;;;;;5103511;27;21070;-73
2021/10/29 13:08:47;;;;;;;10.70;6.30;;;16.40;99.00;;;;;;5097359;28;20052;-75
2021/10/29 13:11:14;;;;;;;9.25;6.38;;;16.40;98.60;;;;;;5067591;28;20143;-73
2021/10/29 13:13:43;;;;;;;9.15;5.70;;;16.40;99.40;;;;;;5069865;28;20052;-73
2021/10/29 13:16:12;;;;;;;6.85;5.70;;;16.30;99.10;;;;;;5066296;28;20046;-73
2021/10/29 13:24:28;;;;;;;8.50;5.80;;;16.30;99.00;;;;;;5079575;28;20048;-74
2021/10/29 13:26:48;;;;;;;9.00;5.70;;;16.20;99.10;;;;;;5059642;28;20111;-73
2021/10/29 13:34:17;;;;;;;7.68;5.10;;;16.10;99.60;;;;;;5070044;28;20040;-73
2021/10/29 13:58:22;;;;;;;6.95;4.80;;;16.00;99.90;;;;;;5064242;28;20502;-72
2021/10/29 14:30:38;;;;;;;7.15;4.30;;;16.50;99.30;;;;;;5076460;28;20407;-71
2021/10/29 14:33:08;;;;;;;7.57;4.03;;;16.50;99.20;;;;;;5042332;28;20071;-71
2021/10/29 14:35:38;;;;;;;7.18;4.55;;;16.50;99.60;;;;;;5074076;28;20127;-70
2021/10/29 14:40:39;;;;;;;7.68;4.45;;;16.40;99.00;;;;;;5060696;28;20044;-71
2021/10/29 15:31:13;;;;;;;7.50;4.45;;;15.70;99.90;;;;;;5071124;28;20048;-74
2021/10/29 15:44:07;;;;;;;8.00;4.88;;;15.40;99.90;;;;;;5050701;28;20062;-72
2021/10/29 15:46:59;;;;;;;8.77;4.90;;;15.40;99.90;;;;;;5073173;28;20457;-73
2021/10/29 15:49:23;;;;;;;11.30;4.63;;;15.30;99.90;;;;;;5065943;28;20043;-73
2021/10/29 15:51:56;;;;;;;9.77;5.63;;;15.30;99.90;;;;;;5051766;28;20971;-71
2021/10/29 15:54:22;;;;;;;7.28;4.80;;;15.20;99.90;;;;;;5064569;28;20062;-71
2021/10/29 15:56:57;;;;;;;7.43;4.93;;;15.10;99.90;;;;;;5052638;28;20135;-70
2021/10/29 16:02:06;;;;;;;9.02;4.60;;;15.00;99.90;;;;;;5084499;28;20460;-71
2021/10/29 16:18:16;;;;;;;7.32;4.70;;;14.70;99.90;;;;;;5090196;28;20048;-71
2021/10/29 16:20:42;;;;;;;7.13;4.88;;;14.60;99.90;;;;;;5079551;28;22395;-71
2021/10/29 16:23:08;;;;;;;7.03;5.00;;;14.60;99.90;;;;;;5065769;28;20390;-70
2021/10/29 16:25:36;;;;;;;8.80;4.93;;;14.60;99.90;;;;;;5096091;28;20113;-70
2021/10/29 16:28:10;;;;;;;6.65;4.82;;;14.60;99.90;;;;;;5082071;28;20122;-70
2021/10/29 16:30:36;;;;;;;7.63;5.13;;;14.60;99.90;;;;;;5068995;28;20383;-70
2021/10/29 16:35:32;;;;;;;8.80;5.45;;;14.50;99.90;;;;;;5092128;28;20574;-70
2021/10/29 16:37:57;;;;;;;9.23;4.97;;;14.50;99.90;;;;;;5087109;28;20593;-70
2021/10/29 16:40:23;;;;;;;7.43;4.85;;;14.50;99.90;;;;;;5089185;28;20075;-70
2021/10/29 16:42:50;;;;;;;9.48;5.45;;;14.50;99.90;;;;;;5099031;28;20086;-73
2021/10/29 16:45:18;;;;;;;9.15;4.90;;;14.50;99.90;;;;;;5086462;28;20054;-73
2021/10/29 16:47:44;;;;;;;7.70;5.35;;;14.50;99.90;;;;;;5090639;28;20100;-73
2021/10/29 16:50:14;;;;;;;7.85;4.88;;;14.40;99.90;;;;;;5086213;28;20039;-74
2021/10/29 16:52:40;;;;;;;8.82;4.93;;;14.50;99.90;;;;;;5085152;28;20040;-73
2021/10/29 16:55:09;;;;;;;6.53;4.68;;;14.50;99.90;;;;;;5084498;28;20120;-74
2021/10/29 16:57:35;;;;;;;9.68;5.25;;;14.40;99.90;;;;;;5100453;28;20039;-74
2021/10/29 17:00:03;;;;;;;9.35;5.13;;;14.40;99.90;;;;;;5085838;28;20047;-73
2021/10/29 17:02:29;;;;;;;8.35;5.20;;;14.40;99.90;;;;;;5081532;28;20080;-73
2021/10/29 17:04:55;;;;;;;7.25;5.38;;;14.40;99.90;;;;;;5102337;28;20074;-73
2021/10/29 17:07:21;;;;;;;8.43;4.90;;;14.40;99.90;;;;;;5101931;28;20033;-74
2021/10/29 17:09:50;;;;;;;9.25;5.10;;;14.40;99.90;;;;;;5089674;28;20492;-71
2021/10/29 17:12:16;;;;;;;7.45;4.75;;;14.50;99.90;;;;;;5068808;28;20044;-70
2021/10/29 17:14:43;;;;;;;25.48;5.25;;;14.50;99.90;;;;;;5069358;28;20494;-71
2021/10/29 17:17:09;;;;;;;6.22;4.50;;;14.60;99.90;;;;;;5071516;28;20135;-71
2021/10/29 17:19:35;;;;;;;9.15;4.57;;;14.70;99.90;;;;;;5082979;28;20040;-71
2021/10/29 17:22:01;;;;;;;7.20;4.85;;;14.70;99.90;;;;;;5074323;28;20036;-69
2021/10/29 17:24:26;;;;;;;9.55;4.82;;;14.70;99.90;;;;;;5062744;28;20040;-70
2021/10/29 17:26:53;;;;;;;9.43;5.00;;;14.70;99.90;;;;;;5083875;28;20497;-71
2021/10/29 17:29:21;;;;;;;9.48;5.45;;;14.70;99.90;;;;;;5091686;28;20315;-71
2021/10/29 17:31:49;;;;;;;9.63;4.97;;;14.80;99.90;;;;;;5081243;28;20078;-70
2021/10/29 17:34:15;;;;;;;8.25;5.07;;;14.80;99.90;;;;;;5060116;28;20065;-71
2021/10/29 17:36:41;;;;;;;7.55;4.65;;;14.90;99.90;;;;;;5083134;28;20044;-71
2021/10/29 17:39:08;;;;;;;8.45;5.90;;;14.90;99.90;;;;;;5055578;28;20380;-71
2021/10/29 17:41:34;;;;;;;9.02;5.30;;;15.00;99.90;;;;;;5079547;28;20036;-71
2021/10/29 17:44:00;;;;;;;7.45;4.63;;;14.90;99.90;;;;;;5096705;28;20190;-71
2021/10/29 17:46:25;;;;;;;9.60;5.53;;;14.90;99.90;;;;;;5083334;28;20054;-74
2021/10/29 17:48:51;;;;;;;8.07;4.90;;;14.90;99.90;;;;;;5058912;28;20052;-75
2021/10/29 17:51:17;;;;;;;7.43;5.00;;;14.90;99.90;;;;;;5067166;28;20036;-73
2021/10/29 17:53:43;;;;;;;8.98;4.70;;;14.90;99.90;;;;;;5072333;28;20047;-73